Time;durP1;ratioP1;P1;durP2;ratioP2;P2;SDS_P1;SDS_P2;PMS_P1;PMS_P2;Temp;Humidity;BMP_temperature;BMP_pressure;BME280_temperature;BME280_humidity;BME280_pressure;Samples;Min_cycle;Max_cycle;Signal;HPM_P1;HPM_P2
2022/08/11 00:02:27;;;;;;;2.95;1.80;;;;;;;18.62;62.62;96841.63;5055359;28;20264;-50
2022/08/11 00:05:07;;;;;;;2.55;1.50;;;;;;;18.53;63.48;96843.56;5055011;28;20245;-51
2022/08/11 00:07:38;;;;;;;2.67;1.70;;;;;;;18.51;63.50;96845.63;5055373;28;20261;-51
2022/08/11 00:10:10;;;;;;;1.50;1.40;;;;;;;18.54;61.50;96839.88;5054540;28;20226;-52
2022/08/11 00:12:39;;;;;;;2.65;1.73;;;;;;;18.57;61.89;96842.19;5046516;28;20291;-50
2022/08/11 00:15:09;;;;;;;4.18;1.73;;;;;;;18.54;61.62;96850.59;5038296;28;20219;-51
2022/08/11 00:17:38;;;;;;;2.03;1.70;;;;;;;18.42;63.18;96837.88;5055781;28;20253;-51
2022/08/11 00:20:09;;;;;;;1.52;1.42;;;;;;;18.35;63.48;96835.91;5054770;28;20539;-51
2022/08/11 00:22:36;;;;;;;3.33;1.98;;;;;;;18.42;61.60;96836.81;5054795;28;20286;-50
2022/08/11 00:25:10;;;;;;;2.97;1.73;;;;;;;18.30;64.04;96840.19;5054318;28;20298;-51
2022/08/11 00:27:39;;;;;;;2.30;1.20;;;;;;;18.33;63.10;96840.63;5055034;28;20255;-50
2022/08/11 00:30:06;;;;;;;3.83;2.10;;;;;;;18.27;63.35;96844.06;5054391;28;20322;-50
2022/08/11 00:32:34;;;;;;;1.75;1.65;;;;;;;18.24;64.03;96855.16;5054068;28;20343;-50
2022/08/11 00:35:03;;;;;;;2.03;1.67;;;;;;;18.22;63.94;96850.97;5054105;28;20211;-51
2022/08/11 00:37:30;;;;;;;1.70;1.40;;;;;;;18.27;63.42;96851.25;5054737;28;20309;-50
2022/08/11 00:39:58;;;;;;;1.50;1.40;;;;;;;18.17;64.07;96853.38;5054508;28;20284;-51
2022/08/11 00:42:40;;;;;;;1.88;1.42;;;;;;;18.08;64.00;96846.44;5054927;28;20310;-50
2022/08/11 00:45:10;;;;;;;1.88;1.75;;;;;;;18.07;65.51;96847.47;5054354;28;20363;-50
2022/08/11 00:47:54;;;;;;;1.70;1.50;;;;;;;18.09;64.80;96845.44;5054641;28;20342;-51
2022/08/11 00:50:30;;;;;;;3.60;1.70;;;;;;;18.01;64.29;96842.84;5071314;28;20268;-55
2022/08/11 00:53:24;;;;;;;2.03;1.90;;;;;;;17.87;65.48;96845.34;5069071;28;20218;-51
2022/08/11 00:56:32;;;;;;;1.55;1.40;;;;;;;17.97;64.80;96839.72;5063040;28;20210;-51
2022/08/11 00:59:44;;;;;;;1.60;1.40;;;;;;;17.98;65.45;96837.88;5038713;28;20207;-51
2022/08/11 01:02:16;;;;;;;1.55;1.40;;;;;;;17.99;63.75;96836.88;5036721;28;20287;-50
2022/08/11 01:05:09;;;;;;;4.32;1.50;;;;;;;17.90;64.10;96842.31;5055906;28;20618;-51
2022/08/11 01:08:15;;;;;;;2.08;1.88;;;;;;;17.86;66.02;96834.81;5046262;28;20307;-49
2022/08/11 01:10:52;;;;;;;2.00;1.67;;;;;;;17.82;65.08;96833.50;5054705;28;20237;-51
2022/08/11 01:13:36;;;;;;;2.25;1.70;;;;;;;17.80;66.13;96840.91;5058449;28;20206;-50
2022/08/11 01:16:17;;;;;;;2.00;1.52;;;;;;;17.72;65.97;96839.13;5047607;28;20217;-50
2022/08/11 01:19:26;;;;;;;1.95;1.67;;;;;;;17.72;65.67;96844.50;5058298;28;20241;-50
2022/08/11 01:22:43;;;;;;;1.75;1.45;;;;;;;17.68;64.74;96843.19;5038172;28;20254;-51
2022/08/11 01:25:52;;;;;;;2.35;1.50;;;;;;;17.64;65.82;96833.88;5034878;28;20291;-50
2022/08/11 01:28:55;;;;;;;1.88;1.70;;;;;;;17.58;66.01;96839.94;5035797;28;20273;-51
2022/08/11 01:31:50;;;;;;;1.90;1.80;;;;;;;17.56;66.04;96841.97;5057789;28;20302;-50
2022/08/11 01:35:03;;;;;;;1.67;1.58;;;;;;;17.63;63.07;96845.59;5057441;28;20242;-51
2022/08/11 01:38:12;;;;;;;2.13;1.90;;;;;;;17.64;64.65;96835.72;5057467;28;20218;-51
2022/08/11 01:41:20;;;;;;;2.33;1.75;;;;;;;17.57;65.53;96851.66;5051341;28;20669;-50
2022/08/11 01:46:57;;;;;;;1.67;1.58;;;;;;;17.51;66.54;96835.47;5053516;28;20234;-50
2022/08/11 01:49:30;;;;;;;1.90;1.80;;;;;;;17.48;66.60;96841.19;5056667;28;20222;-51
2022/08/11 01:52:13;;;;;;;2.45;2.25;;;;;;;17.43;66.55;96842.56;5056878;28;20246;-51
2022/08/11 01:54:45;;;;;;;1.98;1.77;;;;;;;17.41;67.17;96841.91;5057305;28;20277;-52
2022/08/11 01:57:28;;;;;;;1.80;1.70;;;;;;;17.45;65.67;96844.22;5055180;28;20207;-50
2022/08/11 02:00:04;;;;;;;3.33;1.70;;;;;;;17.40;66.97;96842.09;5048674;28;20305;-50
2022/08/11 02:02:46;;;;;;;1.67;1.57;;;;;;;17.40;66.44;96839.41;5056715;28;20211;-52
2022/08/11 02:05:34;;;;;;;2.00;1.85;;;;;;;17.34;66.47;96843.66;5055531;28;20253;-52
2022/08/11 02:08:10;;;;;;;3.10;1.80;;;;;;;17.40;64.90;96839.41;5057095;28;20238;-50
2022/08/11 02:13:37;;;;;;;2.05;1.85;;;;;;;17.22;66.71;96846.91;5055208;28;20264;-50
2022/08/11 02:16:10;;;;;;;1.90;1.77;;;;;;;17.25;66.83;96842.03;5047319;28;20290;-51
2022/08/11 02:24:17;;;;;;;1.60;1.50;;;;;;;17.15;67.24;96835.28;5056274;28;20655;-51
2022/08/11 02:26:47;;;;;;;2.40;1.90;;;;;;;17.14;67.72;96838.97;5056372;28;20231;-50
2022/08/11 02:29:19;;;;;;;3.03;2.20;;;;;;;17.10;67.70;96835.84;5056891;28;20325;-50
2022/08/11 02:34:47;;;;;;;2.03;1.70;;;;;;;17.10;67.55;96829.66;5056555;28;20206;-51
2022/08/11 02:37:18;;;;;;;1.83;1.73;;;;;;;17.05;67.98;96835.53;5057503;28;20286;-50
2022/08/11 02:39:56;;;;;;;2.17;1.60;;;;;;;16.96;69.78;96825.91;5057186;28;20263;-51
2022/08/11 02:42:28;;;;;;;2.33;1.90;;;;;;;16.92;69.56;96825.44;5056327;28;20206;-51
2022/08/11 02:45:05;;;;;;;1.73;1.63;;;;;;;16.94;70.53;96830.59;5057023;28;20230;-50
2022/08/11 02:47:39;;;;;;;1.97;1.87;;;;;;;16.84;69.71;96827.31;5057726;28;20274;-50
2022/08/11 02:50:12;;;;;;;2.30;2.10;;;;;;;16.82;70.93;96837.38;5057509;28;20265;-50
2022/08/11 02:52:45;;;;;;;1.90;1.80;;;;;;;16.77;70.57;96832.56;5057508;28;20238;-50
2022/08/11 02:55:31;;;;;;;2.17;2.07;;;;;;;16.77;70.07;96827.22;5053410;28;20195;-51
2022/08/11 02:58:02;;;;;;;2.53;1.73;;;;;;;16.77;70.26;96832.56;5048820;28;20203;-51
2022/08/11 03:00:30;;;;;;;1.63;1.53;;;;;;;16.78;69.94;96834.22;5071810;28;20286;-51
2022/08/11 03:03:06;;;;;;;2.10;2.00;;;;;;;16.74;70.82;96829.41;5058630;28;20207;-51
2022/08/11 03:06:04;;;;;;;1.87;1.77;;;;;;;16.72;70.75;96834.09;5056652;28;20241;-50
2022/08/11 03:08:53;;;;;;;3.47;1.80;;;;;;;16.76;68.01;96830.03;5051499;28;20215;-51
2022/08/11 03:17:26;;;;;;;2.77;2.10;;;;;;;16.68;70.66;96838.13;5046590;28;20313;-50
2022/08/11 03:20:03;;;;;;;1.83;1.70;;;;;;;16.69;69.00;96832.59;5059567;28;20237;-51
2022/08/11 03:22:36;;;;;;;2.47;1.90;;;;;;;16.63;69.72;96829.78;5050774;28;20267;-51
2022/08/11 03:25:08;;;;;;;2.13;1.87;;;;;;;16.58;70.20;96829.50;5061584;28;20207;-50
2022/08/11 03:27:47;;;;;;;2.10;2.00;;;;;;;16.52;71.89;96831.00;5056610;28;20243;-51
2022/08/11 03:30:18;;;;;;;3.73;2.20;;;;;;;16.53;69.95;96840.69;5055232;28;20242;-50
2022/08/11 03:36:10;;;;;;;1.97;1.87;;;;;;;16.51;70.97;96834.66;5033062;28;20680;-50
2022/08/11 03:38:49;;;;;;;2.63;1.97;;;;;;;16.55;70.03;96827.97;5033499;28;20246;-52
2022/08/11 03:44:18;;;;;;;2.33;2.13;;;;;;;16.45;71.38;96843.38;5054953;28;20296;-50
2022/08/11 03:47:03;;;;;;;2.00;1.90;;;;;;;16.43;71.54;96840.06;5054688;28;20249;-50
2022/08/11 03:49:42;;;;;;;3.00;2.10;;;;;;;16.50;71.99;96834.84;5054442;28;20227;-51
2022/08/11 03:52:17;;;;;;;2.03;1.90;;;;;;;16.41;72.23;96831.38;5054741;28;20219;-52
2022/08/11 03:54:50;;;;;;;2.57;2.20;;;;;;;16.47;70.47;96838.72;5057976;28;20202;-50
2022/08/11 03:58:10;;;;;;;2.03;1.83;;;;;;;16.37;72.46;96835.41;5058853;28;20230;-51
2022/08/11 04:00:48;;;;;;;2.67;2.17;;;;;;;16.30;72.74;96834.44;5018074;28;20548;-50
2022/08/11 04:03:35;;;;;;;2.40;2.07;;;;;;;16.26;73.15;96835.81;5058486;28;20235;-51
2022/08/11 04:06:33;;;;;;;2.97;2.30;;;;;;;16.26;72.86;96838.47;5054469;28;20250;-50
2022/08/11 04:09:52;;;;;;;2.10;2.00;;;;;;;16.29;70.94;96835.47;5053005;28;20294;-50
2022/08/11 04:12:33;;;;;;;3.57;2.20;;;;;;;16.27;72.09;96840.13;5050176;28;20269;-50
2022/08/11 04:18:46;;;;;;;2.40;2.20;;;;;;;16.13;73.44;96833.69;5054328;28;20210;-51
2022/08/11 04:21:50;;;;;;;2.10;1.90;;;;;;;16.25;72.10;96842.16;5046964;28;20696;-51
2022/08/11 04:24:34;;;;;;;2.60;2.40;;;;;;;16.18;73.67;96841.19;5050296;28;20238;-50
2022/08/11 04:27:19;;;;;;;2.60;2.40;;;;;;;16.10;74.52;96835.88;5055027;28;20299;-51
2022/08/11 04:29:57;;;;;;;2.43;2.30;;;;;;;16.11;74.05;96835.69;5056498;28;20211;-50
2022/08/11 04:32:51;;;;;;;2.10;2.00;;;;;;;16.17;73.68;96839.50;5049327;28;20606;-51
2022/08/11 04:35:28;;;;;;;3.47;2.30;;;;;;;16.19;73.18;96838.31;5046057;28;20290;-50
2022/08/11 04:38:23;;;;;;;2.40;2.30;;;;;;;16.18;75.53;96849.19;5058732;28;20608;-51
2022/08/11 04:41:13;;;;;;;2.47;2.27;;;;;;;16.26;74.40;96851.81;5049200;28;20707;-51
2022/08/11 04:44:16;;;;;;;3.20;2.13;;;;;;;16.34;74.13;96852.59;5058669;28;20210;-49
2022/08/11 05:02:50;;;;;;;2.67;2.40;;;;;;;17.26;72.69;96857.06;5058132;28;20635;-51
2022/08/11 05:05:32;;;;;;;2.60;2.40;;;;;;;17.12;72.85;96859.69;5052873;28;20203;-51
2022/08/11 05:08:32;;;;;;;4.45;2.95;;;;;;;17.20;73.34;96865.81;5077872;28;20191;-50
2022/08/11 05:11:44;;;;;;;4.00;2.22;;;;;;;17.37;72.61;96867.34;5070230;28;20582;-50
2022/08/11 05:37:01;;;;;;;2.35;2.20;;;;;;;19.04;66.35;96862.28;5046765;28;20271;-51
2022/08/11 05:56:19;;;;;;;2.55;2.35;;;;;;;19.85;62.54;96870.69;5056991;28;20253;-51
2022/08/11 05:58:54;;;;;;;3.58;2.10;;;;;;;20.05;60.08;96875.41;5056863;28;20199;-50
2022/08/11 06:01:23;;;;;;;2.78;2.15;;;;;;;20.25;58.70;96876.34;5057519;28;20245;-51
2022/08/11 06:06:40;;;;;;;2.25;2.05;;;;;;;20.74;53.47;96882.41;5057631;28;20413;-50
2022/08/11 06:09:08;;;;;;;2.25;2.15;;;;;;;21.16;53.31;96883.19;5044022;28;20210;-51
2022/08/11 06:11:39;;;;;;;7.28;2.53;;;;;;;21.17;51.08;96888.38;5056874;28;20322;-50
2022/08/11 06:14:08;;;;;;;3.05;2.40;;;;;;;21.53;52.44;96885.34;5056875;28;20207;-50
2022/08/11 06:16:36;;;;;;;3.08;2.10;;;;;;;21.72;51.86;96884.50;5057024;28;20214;-51
2022/08/11 06:19:04;;;;;;;2.85;2.30;;;;;;;21.90;52.66;96885.75;5056968;28;20299;-50
2022/08/11 06:21:33;;;;;;;2.30;2.10;;;;;;;22.10;52.09;96887.44;5057823;28;20282;-51
2022/08/11 06:24:01;;;;;;;5.40;2.67;;;;;;;22.28;49.27;96884.09;5058105;28;20295;-52
2022/08/11 06:26:27;;;;;;;3.47;2.17;;;;;;;22.40;49.57;96893.19;5057649;28;20591;-50
2022/08/11 06:29:00;;;;;;;3.25;2.30;;;;;;;22.48;51.87;96884.88;5058670;28;20279;-52
2022/08/11 06:31:28;;;;;;;3.15;2.30;;;;;;;22.75;51.50;96883.75;5057479;28;20568;-51
2022/08/11 06:34:09;;;;;;;2.45;2.25;;;;;;;22.81;49.72;96885.59;5057684;28;20503;-51
2022/08/11 06:36:40;;;;;;;2.53;2.33;;;;;;;22.81;47.26;96888.28;5057174;28;20310;-51
2022/08/11 06:39:15;;;;;;;2.58;2.38;;;;;;;23.00;47.68;96885.72;5056922;28;20227;-51
2022/08/11 06:41:49;;;;;;;2.60;2.40;;;;;;;23.15;48.69;96881.72;5043817;28;20579;-51
2022/08/11 06:44:23;;;;;;;3.28;2.47;;;;;;;23.44;48.18;96887.59;5055448;28;20261;-51
2022/08/11 06:46:53;;;;;;;2.80;2.20;;;;;;;23.75;47.65;96887.56;5056557;28;20561;-51
2022/08/11 06:52:12;;;;;;;5.45;2.28;;;;;;;23.95;45.92;96882.03;5071276;28;20253;-52
2022/08/11 06:54:41;;;;;;;3.38;2.35;;;;;;;23.69;46.63;96889.28;5052433;28;20195;-51
2022/08/11 07:00:29;;;;;;;4.97;2.28;;;;;;;23.89;46.24;96883.72;5057118;28;20201;-50
2022/08/11 07:03:00;;;;;;;3.00;2.22;;;;;;;24.31;46.50;96886.69;5045603;28;20238;-51
2022/08/11 07:05:42;;;;;;;3.65;2.40;;;;;;;24.37;44.53;96881.25;5055617;28;20250;-51
2022/08/11 07:17:25;;;;;;;3.67;2.38;;;;;;;24.93;43.34;96886.44;5043728;28;20245;-52
2022/08/11 07:31:12;;;;;;;2.40;2.30;;;;;;;24.76;45.30;96880.78;5076803;28;20602;-51
2022/08/11 07:33:44;;;;;;;2.15;1.95;;;;;;;24.58;43.40;96886.22;5067048;28;20266;-52
2022/08/11 07:36:13;;;;;;;3.05;2.53;;;;;;;24.56;44.72;96885.59;5078536;28;20209;-52
2022/08/11 07:38:45;;;;;;;3.67;2.70;;;;;;;24.86;44.75;96876.75;5069179;28;20188;-50
2022/08/11 07:41:14;;;;;;;2.40;2.20;;;;;;;25.34;43.72;96872.16;5076201;28;20183;-51
2022/08/11 07:43:44;;;;;;;5.32;2.70;;;;;;;25.27;44.49;96868.72;5076365;28;20195;-51
2022/08/11 07:54:26;;;;;;;3.50;2.40;;;;;;;25.23;43.24;96876.47;5063901;28;20194;-51
2022/08/11 07:56:54;;;;;;;9.18;3.17;;;;;;;25.53;44.54;96868.38;5055310;28;20314;-52
2022/08/11 08:18:38;;;;;;;4.25;2.53;;;;;;;26.10;42.14;96876.81;5054686;28;20202;-51
2022/08/11 08:21:11;;;;;;;9.77;3.25;;;;;;;26.13;41.88;96876.34;5054333;28;20697;-50
2022/08/11 08:23:40;;;;;;;6.32;2.72;;;;;;;25.62;41.93;96875.09;5054613;28;20191;-53
2022/08/11 08:26:57;;;;;;;3.80;2.72;;;;;;;26.09;43.15;96876.00;5054033;28;20217;-51
2022/08/11 08:30:46;;;;;;;3.05;2.60;;;;;;;25.61;41.62;96868.00;5044345;28;20544;-53
2022/08/11 08:31:47;;;;;;;4.63;2.83;;;;;;;25.53;42.33;96871.06;5054190;28;20211;-52
2022/08/11 08:34:15;;;;;;;2.40;2.30;;;;;;;25.81;44.08;96869.59;5054474;28;20635;-52
2022/08/11 08:36:43;;;;;;;8.95;3.50;;;;;;;26.32;43.54;96883.34;5054205;28;20207;-52
2022/08/11 08:39:12;;;;;;;4.32;2.42;;;;;;;26.42;40.90;96880.88;5054434;28;20298;-52
2022/08/11 08:41:39;;;;;;;3.35;2.25;;;;;;;26.66;41.41;96877.06;5054417;28;20207;-50
2022/08/11 08:44:09;;;;;;;5.63;2.78;;;;;;;26.27;40.27;96875.09;5054264;28;20287;-50
2022/08/11 08:46:42;;;;;;;2.80;2.47;;;;;;;26.55;40.67;96879.78;5041664;28;20321;-54
2022/08/11 08:49:13;;;;;;;3.78;2.50;;;;;;;26.44;41.52;96881.44;5054415;28;20287;-51
2022/08/11 08:51:42;;;;;;;5.82;3.10;;;;;;;26.41;41.11;96884.63;5054496;28;20257;-51
2022/08/11 08:54:11;;;;;;;3.90;2.72;;;;;;;25.82;42.22;96882.09;5054300;28;20576;-52
2022/08/11 08:56:40;;;;;;;2.92;2.67;;;;;;;26.28;43.02;96876.75;5054046;28;20290;-52
2022/08/11 08:59:11;;;;;;;3.33;2.88;;;;;;;26.48;40.56;96879.91;5053938;28;20609;-51
2022/08/11 09:01:42;;;;;;;5.32;2.50;;;;;;;25.93;41.54;96876.69;5054162;28;20218;-50
2022/08/11 09:04:10;;;;;;;6.68;2.78;;;;;;;26.22;43.00;96870.34;5040650;28;20207;-51
2022/08/11 09:06:41;;;;;;;5.82;2.60;;;;;;;26.68;41.40;96877.63;5054051;28;20210;-51
2022/08/11 09:09:10;;;;;;;2.80;2.40;;;;;;;26.90;40.95;96869.72;5054473;28;20195;-52
2022/08/11 09:11:52;;;;;;;3.53;2.42;;;;;;;27.22;41.57;96867.34;5053839;28;20230;-51
2022/08/11 09:14:23;;;;;;;2.67;2.40;;;;;;;27.03;40.23;96865.91;5056190;28;20224;-52
2022/08/11 09:16:50;;;;;;;5.10;2.33;;;;;;;27.22;39.67;96864.63;5057826;28;20683;-50
2022/08/11 09:19:22;;;;;;;2.65;2.30;;;;;;;27.26;40.59;96871.25;5057203;28;20230;-52
2022/08/11 09:26:58;;;;;;;4.45;2.80;;;;;;;26.95;40.18;96869.00;5057289;28;20624;-52
2022/08/11 09:27:26;;;;;;;4.45;2.40;;;;;;;26.97;40.92;96859.53;5060224;28;20202;-51
2022/08/11 09:29:58;;;;;;;2.50;2.30;;;;;;;27.33;41.85;96863.78;5072480;28;20230;-53
2022/08/11 09:32:27;;;;;;;4.60;2.60;;;;;;;27.54;39.65;96863.09;5076309;28;20246;-53
2022/08/11 09:34:54;;;;;;;2.88;2.50;;;;;;;27.09;40.94;96863.06;5065910;28;20268;-51
2022/08/11 09:45:40;;;;;;;4.05;2.58;;;;;;;27.21;40.85;96858.38;5056994;28;20252;-52
2022/08/11 09:48:08;;;;;;;4.53;2.55;;;;;;;27.48;42.34;96852.41;5057557;28;20636;-52
2022/08/11 09:50:37;;;;;;;5.38;3.00;;;;;;;27.77;41.91;96861.31;5057688;28;20199;-53
2022/08/11 09:53:05;;;;;;;5.00;2.67;;;;;;;27.63;38.92;96849.97;5058266;28;20238;-53
2022/08/11 09:55:32;;;;;;;3.75;2.30;;;;;;;27.72;40.30;96850.34;5056571;28;20245;-50
2022/08/11 09:58:12;;;;;;;13.98;3.80;;;;;;;27.54;38.84;96846.81;5056506;28;20298;-52
2022/08/11 10:00:44;;;;;;;3.97;2.50;;;;;;;27.64;40.61;96852.41;5057006;28;20202;-53
2022/08/11 10:03:14;;;;;;;2.53;2.33;;;;;;;28.14;40.59;96846.19;5057040;28;20282;-53
2022/08/11 10:08:32;;;;;;;2.30;2.03;;;;;;;28.52;39.93;96843.47;5056824;28;20198;-51
2022/08/11 10:10:59;;;;;;;2.17;2.08;;;;;;;28.79;37.48;96848.22;5056377;28;20265;-52
2022/08/11 10:13:32;;;;;;;3.05;2.67;;;;;;;28.65;39.10;96839.56;5056695;28;20246;-52
2022/08/11 10:16:02;;;;;;;4.93;2.75;;;;;;;28.59;38.38;96844.09;5056431;28;20202;-52
2022/08/11 10:18:48;;;;;;;5.22;2.45;;;;;;;28.32;38.88;96835.03;5056544;28;20640;-52
2022/08/11 10:21:18;;;;;;;3.30;2.45;;;;;;;28.21;39.22;96833.22;5056091;28;20241;-52
2022/08/11 10:34:49;;;;;;;2.80;2.60;;;;;;;29.03;39.60;96822.38;5057781;28;20198;-53
2022/08/11 10:37:17;;;;;;;3.90;3.35;;;;;;;29.34;38.00;96821.63;5057090;28;20199;-52
2022/08/11 10:39:45;;;;;;;4.95;2.58;;;;;;;29.10;38.00;96817.53;5056549;28;20257;-50
2022/08/11 10:45:00;;;;;;;2.30;2.10;;;;;;;29.89;38.26;96826.00;5044017;28;20249;-52
2022/08/11 10:47:33;;;;;;;3.60;2.60;;;;;;;29.71;38.15;96824.44;5056004;28;20246;-51
2022/08/11 11:01:01;;;;;;;3.35;2.63;;;;;;;29.55;38.53;96809.84;5042927;28;20313;-51
2022/08/11 11:03:33;;;;;;;2.72;2.50;;;;;;;29.81;39.11;96805.44;5057035;28;20280;-52
2022/08/11 11:06:09;;;;;;;4.15;2.40;;;;;;;29.80;38.83;96808.41;5060986;28;20199;-51
2022/08/11 11:08:52;;;;;;;4.43;2.55;;;;;;;29.93;38.38;96814.31;5060892;28;20205;-52
2022/08/11 11:11:20;;;;;;;3.50;2.83;;;;;;;29.92;37.02;96815.38;5059816;28;20278;-51
2022/08/11 11:19:25;;;;;;;6.95;2.63;;;;;;;29.81;37.76;96801.88;5055584;28;20205;-51
2022/08/11 11:22:36;;;;;;;6.80;2.50;;;;;;;29.53;39.99;96803.84;5055352;28;20500;-53
2022/08/11 11:24:46;;;;;;;6.60;2.90;;;;;;;29.42;39.21;96810.28;5054003;28;20199;-51
2022/08/11 11:27:20;;;;;;;3.40;3.10;;;;;;;29.94;38.07;96809.66;5055988;28;20524;-51
2022/08/11 11:29:57;;;;;;;6.38;3.80;;;;;;;30.06;37.45;96811.13;5055993;28;20234;-51
2022/08/11 11:32:33;;;;;;;3.63;3.10;;;;;;;30.01;36.32;96811.06;5056141;28;20277;-52
2022/08/11 11:35:26;;;;;;;3.17;2.72;;;;;;;30.00;37.25;96816.81;5055485;28;20287;-51
2022/08/11 11:37:53;;;;;;;5.38;2.60;;;;;;;29.87;37.56;96811.78;5059373;28;20191;-53
2022/08/11 11:40:24;;;;;;;2.70;2.50;;;;;;;29.91;38.37;96805.53;5075147;28;20218;-52
2022/08/11 11:42:56;;;;;;;4.88;2.30;;;;;;;29.74;36.42;96804.84;5062929;28;20195;-51
2022/08/11 11:45:24;;;;;;;11.75;3.00;;;;;;;29.78;37.11;96791.50;5054724;28;20214;-51
2022/08/11 11:47:52;;;;;;;6.93;3.00;;;;;;;29.89;38.01;96798.72;5055124;28;20545;-50
2022/08/11 11:50:23;;;;;;;3.08;2.13;;;;;;;30.09;37.55;96787.94;5055285;28;20293;-51
2022/08/11 11:52:54;;;;;;;2.53;2.33;;;;;;;30.33;36.32;96797.34;5055077;28;20219;-53
2022/08/11 11:55:21;;;;;;;3.03;2.25;;;;;;;30.09;35.62;96788.78;5054567;28;20192;-53
2022/08/11 12:03:19;;;;;;;2.88;2.35;;;;;;;29.97;36.31;96770.97;5054775;28;20760;-51
2022/08/11 12:05:47;;;;;;;4.03;2.28;;;;;;;30.18;36.08;96774.66;5054342;28;20207;-51
2022/08/11 12:08:16;;;;;;;2.88;2.30;;;;;;;30.22;35.31;96778.50;5055000;28;20218;-53
2022/08/11 12:10:48;;;;;;;3.00;2.45;;;;;;;30.41;35.85;96775.06;5041460;28;20294;-50
2022/08/11 12:16:03;;;;;;;2.75;2.53;;;;;;;30.48;35.26;96775.66;5044516;28;20277;-52
2022/08/11 12:18:44;;;;;;;2.47;2.28;;;;;;;30.39;34.51;96770.94;5054334;28;20201;-51
2022/08/11 12:21:11;;;;;;;3.92;2.42;;;;;;;30.36;34.70;96772.28;5055065;28;20205;-52
2022/08/11 12:29:11;;;;;;;3.80;2.30;;;;;;;30.50;37.30;96748.91;5054428;28;20642;-51
2022/08/11 12:31:39;;;;;;;2.88;2.25;;;;;;;30.47;36.24;96748.59;5054584;28;20206;-53
2022/08/11 12:34:08;;;;;;;3.40;2.42;;;;;;;30.57;37.55;96741.28;5054460;28;20306;-53
2022/08/11 12:36:37;;;;;;;2.95;2.28;;;;;;;30.42;35.67;96745.88;5054466;28;20301;-52
2022/08/11 12:39:08;;;;;;;3.08;2.40;;;;;;;30.17;35.01;96740.25;5054238;28;20290;-51
2022/08/11 12:47:05;;;;;;;3.40;2.50;;;;;;;29.58;36.02;96724.84;5042544;28;20715;-51
2022/08/11 12:52:22;;;;;;;3.70;2.58;;;;;;;30.03;37.45;96723.53;5058161;28;20202;-52
2022/08/11 12:55:00;;;;;;;5.68;2.67;;;;;;;30.06;36.45;96718.38;5058041;28;20299;-51
2022/08/11 13:05:48;;;;;;;2.67;2.50;;;;;;;30.21;35.80;96704.00;5057737;28;20199;-52
2022/08/11 13:08:15;;;;;;;3.10;2.63;;;;;;;30.09;36.17;96711.56;5058216;28;20214;-53
2022/08/11 13:13:30;;;;;;;3.00;2.40;;;;;;;29.99;35.57;96706.06;5057566;28;20665;-52
2022/08/11 13:15:57;;;;;;;4.57;2.63;;;;;;;30.06;35.68;96707.47;5057897;28;20286;-51
2022/08/11 13:18:27;;;;;;;2.00;1.90;;;;;;;29.92;34.52;96700.84;5057962;28;20220;-51
2022/08/11 13:20:54;;;;;;;2.88;2.17;;;;;;;29.86;34.07;96699.19;5057851;28;20651;-52
2022/08/11 13:23:24;;;;;;;2.30;2.10;;;;;;;29.96;34.43;96692.97;5057658;28;20203;-52
2022/08/11 13:25:54;;;;;;;2.55;2.35;;;;;;;30.15;35.65;96688.66;5057285;28;20512;-52
2022/08/11 13:28:22;;;;;;;2.92;2.60;;;;;;;30.05;35.88;96689.47;5057941;28;20207;-52
2022/08/11 13:33:35;;;;;;;2.33;2.22;;;;;;;30.01;34.55;96684.78;5045928;28;20257;-53
2022/08/11 13:36:03;;;;;;;4.40;2.42;;;;;;;30.07;36.00;96681.03;5057522;28;20207;-53
2022/08/11 13:38:32;;;;;;;6.80;3.38;;;;;;;29.91;35.32;96676.56;5057564;28;20662;-53
2022/08/11 13:41:01;;;;;;;8.10;3.15;;;;;;;30.07;35.47;96678.28;5057360;28;20756;-52
2022/08/11 13:43:28;;;;;;;2.58;2.38;;;;;;;30.17;34.55;96670.16;5065706;28;20246;-54
2022/08/11 13:46:17;;;;;;;2.40;2.20;;;;;;;30.06;35.77;96673.91;5066513;28;20207;-54
2022/08/11 13:48:42;;;;;;;2.60;2.17;;;;;;;29.91;34.43;96671.09;5059419;28;20287;-52
2022/08/11 13:53:55;;;;;;;2.35;2.22;;;;;;;29.44;34.35;96666.41;5057481;28;20245;-54
2022/08/11 13:56:24;;;;;;;2.35;2.25;;;;;;;29.57;33.50;96668.69;5056702;28;20290;-53
2022/08/11 13:58:54;;;;;;;3.25;1.98;;;;;;;29.42;34.93;96668.59;5057236;28;20233;-52
2022/08/11 14:01:22;;;;;;;2.47;2.28;;;;;;;29.42;34.43;96657.69;5056159;28;20286;-51
2022/08/11 14:03:50;;;;;;;3.17;2.83;;;;;;;29.37;35.88;96654.91;5056996;28;20445;-52
2022/08/11 14:06:18;;;;;;;2.40;2.20;;;;;;;29.36;36.13;96647.84;5056784;28;20294;-51
2022/08/11 14:08:45;;;;;;;2.80;2.30;;;;;;;29.26;34.70;96658.66;5056632;28;20203;-53
2022/08/11 14:13:59;;;;;;;5.60;2.35;;;;;;;29.25;34.96;96646.09;5056815;28;20741;-52
2022/08/11 14:16:29;;;;;;;2.60;2.40;;;;;;;29.29;35.54;96644.53;5056687;28;20214;-53
2022/08/11 14:18:59;;;;;;;2.60;2.40;;;;;;;29.22;34.62;96653.97;5056731;28;20291;-53
2022/08/11 14:24:13;;;;;;;2.45;2.15;;;;;;;28.95;35.24;96648.53;5056873;28;20206;-51
2022/08/11 14:26:44;;;;;;;2.55;2.35;;;;;;;29.09;35.62;96641.59;5056610;28;20298;-54
2022/08/11 14:29:16;;;;;;;3.38;2.60;;;;;;;28.98;35.11;96634.44;5056860;28;20523;-52
2022/08/11 14:31:45;;;;;;;2.33;2.22;;;;;;;29.06;35.87;96626.59;5056867;28;20217;-53
2022/08/11 14:34:15;;;;;;;2.60;2.50;;;;;;;29.09;37.21;96627.97;5056287;28;20869;-52
2022/08/11 14:36:44;;;;;;;2.33;2.22;;;;;;;29.06;36.25;96625.78;5043440;28;20221;-51
2022/08/11 14:39:12;;;;;;;3.20;2.53;;;;;;;29.02;35.72;96628.19;5056401;28;20659;-52
2022/08/11 14:47:18;;;;;;;3.15;2.30;;;;;;;29.01;36.49;96617.59;5031372;28;20310;-51
2022/08/11 14:49:45;;;;;;;2.10;2.00;;;;;;;29.07;36.64;96621.97;5036664;28;20287;-53
2022/08/11 14:52:14;;;;;;;4.30;2.53;;;;;;;29.01;34.92;96620.31;5050926;28;20559;-52
2022/08/11 14:57:29;;;;;;;3.42;2.50;;;;;;;28.86;34.98;96614.72;5055322;28;20667;-52
2022/08/11 15:00:02;;;;;;;2.47;2.25;;;;;;;28.89;35.41;96619.63;5056275;28;20262;-51
2022/08/11 15:05:15;;;;;;;2.80;2.70;;;;;;;28.80;36.60;96624.75;5055846;28;20685;-50
2022/08/11 15:07:42;;;;;;;2.60;2.50;;;;;;;28.79;36.66;96614.13;5056381;28;20282;-52
2022/08/11 15:10:10;;;;;;;2.42;2.33;;;;;;;28.81;36.64;96623.66;5056215;28;20685;-53
2022/08/11 15:12:38;;;;;;;3.10;2.80;;;;;;;28.72;35.91;96614.34;5055589;28;20249;-51
2022/08/11 15:17:54;;;;;;;3.28;2.70;;;;;;;28.67;37.59;96617.81;5055924;28;20257;-52
2022/08/11 15:25:58;;;;;;;4.82;2.70;;;;;;;28.60;36.71;96606.28;5055381;28;20202;-51
2022/08/11 15:45:46;;;;;;;4.65;2.80;;;;;;;28.52;36.99;96595.84;5055916;28;20210;-51
2022/08/11 15:47:57;;;;;;;3.83;2.80;;;;;;;28.39;36.86;96598.19;5043126;28;20656;-52
2022/08/11 15:50:29;;;;;;;3.08;2.60;;;;;;;28.27;35.84;96597.53;5050717;28;20265;-55
2022/08/11 15:52:59;;;;;;;4.22;2.80;;;;;;;28.27;36.58;96592.09;5053096;28;20222;-52
2022/08/11 15:55:28;;;;;;;2.65;2.42;;;;;;;28.27;36.81;96587.44;5065213;28;20235;-52
2022/08/11 16:06:14;;;;;;;3.05;2.63;;;;;;;28.17;37.35;96585.44;5068741;28;20225;-51
2022/08/11 16:08:43;;;;;;;3.35;3.05;;;;;;;28.18;37.93;96586.25;5066945;28;20703;-51
2022/08/11 16:11:10;;;;;;;2.50;2.38;;;;;;;28.20;38.46;96575.94;5077744;28;20207;-50
2022/08/11 16:16:24;;;;;;;2.63;2.42;;;;;;;28.16;36.19;96580.28;5063958;28;20194;-52
2022/08/11 16:18:55;;;;;;;2.95;2.42;;;;;;;28.14;36.06;96574.25;5068995;28;20204;-52
2022/08/11 16:21:24;;;;;;;2.85;2.40;;;;;;;28.12;35.64;96570.97;5059121;28;20184;-51
2022/08/11 16:23:53;;;;;;;4.03;2.50;;;;;;;28.08;36.63;96567.13;5075073;28;20204;-52
2022/08/11 16:26:22;;;;;;;2.47;2.38;;;;;;;28.12;36.55;96565.53;5077133;28;20234;-51
2022/08/11 16:28:51;;;;;;;3.17;2.88;;;;;;;28.03;36.99;96564.31;5067405;28;20218;-55
2022/08/11 16:31:18;;;;;;;3.03;2.72;;;;;;;28.05;36.84;96560.28;5069605;28;20203;-53
2022/08/11 16:33:45;;;;;;;3.33;2.83;;;;;;;28.00;36.44;96556.66;5058243;28;20599;-51
2022/08/11 16:39:01;;;;;;;2.50;2.30;;;;;;;27.98;36.54;96556.09;5055104;28;20206;-51
2022/08/11 16:47:02;;;;;;;2.30;2.20;;;;;;;27.90;36.06;96545.69;5054839;28;20249;-52
2022/08/11 16:49:31;;;;;;;3.60;2.65;;;;;;;27.87;36.37;96546.19;5041822;28;20298;-53
2022/08/11 16:52:02;;;;;;;2.58;2.47;;;;;;;27.87;36.50;96544.28;5054477;28;20299;-51
2022/08/11 16:54:30;;;;;;;3.03;2.83;;;;;;;27.83;37.48;96542.34;5054475;28;20207;-51
2022/08/11 16:59:12;;;;;;;3.30;3.00;;;;;;;27.82;36.73;96554.28;5054494;28;20218;-52